Date,TemperatureHighF,TemperatureAvgF,TemperatureLowF,DewpointHighF,DewpointAvgF,DewpointLowF,HumidityHigh,HumidityAvg,HumidityLow,PressureMaxIn,PressureMinIn,WindSpeedMaxMPH,WindSpeedAvgMPH,GustSpeedMaxMPH,PrecipitationSumIn
2013-9-1,87.1,73.8,64.9,72.5,66.1,61.1,90,78,60,29.82,29.72,0,0,0,0.76
2013-9-2,80.1,69.1,59.9,65.9,60.4,53.3,91,75,55,29.98,29.78,0,0,0,0.00
2013-9-3,77.6,65.5,55.0,59.8,54.3,50.1,85,68,50,30.07,29.97,0,0,0,0.00
2013-9-4,84.6,69.4,55.9,64.1,57.3,51.2,88,67,46,30.10,30.01,0,0,0,0.00
2013-9-5,73.4,67.0,57.2,63.0,54.8,47.1,88,66,47,30.24,30.08,0,0,0,0.02
2013-9-6,87.3,71.3,56.1,68.1,58.7,48.0,81,66,52,30.19,30.00,0,0,0,0.00
2013-9-7,90.0,77.1,66.2,68.4,64.3,60.6,83,66,41,30.00,29.88,0,0,0,0.01
2013-9-8,76.5,71.5,67.5,67.6,65.1,62.6,88,80,73,30.00,29.92,0,0,0,0.00
2013-9-9,93.6,80.8,67.5,76.9,70.2,62.4,88,71,56,29.94,29.81,0,0,0,0.00
2013-9-10,95.6,85.2,74.4,70.9,66.7,63.0,71,55,39,29.98,29.85,0,0,0,0.00
2013-9-11,93.6,80.6,73.8,71.8,66.7,63.0,76,63,47,30.05,29.95,0,0,0,0.00
2013-9-12,82.3,71.2,60.3,66.0,59.6,53.4,85,68,40,30.07,29.92,0,0,0,0.09
2013-9-13,67.7,58.2,49.7,53.4,45.0,41.7,79,62,42,30.16,30.06,0,0,0,0.00
2013-9-14,73.1,60.1,46.1,53.8,45.8,40.8,86,62,39,30.15,30.00,0,0,0,0.00
2013-9-15,58.1,56.0,51.6,53.7,46.7,41.0,87,71,56,30.02,29.95,0,0,0,0.70
2013-9-16,65.9,56.9,48.2,50.4,47.0,43.0,84,70,56,30.32,30.25,4,0,4,0.11
2013-9-17,72.0,59.4,46.9,56.5,50.3,42.8,88,73,57,30.27,30.06,4,1,4,0.00
2013-9-18,82.6,67.9,58.1,67.6,59.2,49.6,86,74,58,30.07,29.88,4,1,4,0.60
2013-9-19,83.0,73.8,66.5,74.9,68.2,62.3,91,83,69,29.92,29.74,5,1,5,0.19
2013-9-20,77.8,68.6,56.5,68.0,60.3,50.4,88,75,60,29.80,29.72,4,1,4,0.02
2013-9-21,67.5,57.8,50.0,50.9,47.9,42.2,88,71,51,29.91,29.76,3,0,3,0.01
2013-9-22,68.4,55.8,46.6,51.6,46.1,41.6,87,71,51,30.00,29.90,3,0,3,0.00
2013-9-23,67.9,56.6,45.2,52.0,47.2,41.3,86,72,52,30.07,29.99,4,0,4,0.00
2013-9-24,71.8,58.8,48.8,53.9,48.5,43.8,84,70,49,30.00,29.90,4,1,4,0.00
2013-9-25,70.4,58.8,49.5,54.4,50.1,46.3,91,74,53,29.93,29.89,3,0,3,0.00
2013-9-26,75.6,61.5,49.5,58.1,51.2,45.5,92,72,39,30.05,29.92,4,0,4,0.00
2013-9-27,80.8,65.9,51.7,60.5,52.4,47.1,87,64,43,30.11,30.00,5,1,5,0.01
2013-9-28,83.9,69.6,54.0,62.8,55.3,46.3,81,62,44,30.03,29.84,7,1,7,0.00
2013-9-29,68.8,59.9,50.4,60.4,48.3,42.0,88,68,41,30.01,29.89,3,0,3,0.08
2013-9-30,73.4,59.4,44.7,56.5,47.9,40.5,89,68,44,29.95,29.83,3,0,4,0.00